sensor_id;sensor_type;location;lat;lon;timestamp;temperature;humidity
46932;DHT22;32670;51.464;11.964;2023-02-11T00:03:51;20.40;50.10
46932;DHT22;32670;51.464;11.964;2023-02-11T00:06:16;20.30;50.20
46932;DHT22;32670;51.464;11.964;2023-02-11T00:08:42;20.40;50.40
46932;DHT22;32670;51.464;11.964;2023-02-11T00:11:14;20.30;50.20
46932;DHT22;32670;51.464;11.964;2023-02-11T00:13:41;20.30;50.20
46932;DHT22;32670;51.464;11.964;2023-02-11T00:16:09;20.40;50.30
46932;DHT22;32670;51.464;11.964;2023-02-11T00:18:35;20.30;50.20
46932;DHT22;32670;51.464;11.964;2023-02-11T00:21:08;20.40;50.30
46932;DHT22;32670;51.464;11.964;2023-02-11T00:23:33;20.40;50.40
46932;DHT22;32670;51.464;11.964;2023-02-11T00:25:59;20.40;50.30
46932;DHT22;32670;51.464;11.964;2023-02-11T00:28:24;20.40;50.70
46932;DHT22;32670;51.464;11.964;2023-02-11T00:30:57;20.40;50.60
46932;DHT22;32670;51.464;11.964;2023-02-11T00:33:23;20.40;50.70
46932;DHT22;32670;51.464;11.964;2023-02-11T00:35:48;20.40;50.50
46932;DHT22;32670;51.464;11.964;2023-02-11T00:38:14;20.40;50.60
46932;DHT22;32670;51.464;11.964;2023-02-11T00:40:40;20.40;50.70
46932;DHT22;32670;51.464;11.964;2023-02-11T00:43:05;20.40;50.70
46932;DHT22;32670;51.464;11.964;2023-02-11T00:45:30;20.40;50.60
46932;DHT22;32670;51.464;11.964;2023-02-11T00:47:56;20.40;50.50
46932;DHT22;32670;51.464;11.964;2023-02-11T00:50:22;20.40;50.90
46932;DHT22;32670;51.464;11.964;2023-02-11T00:52:48;20.40;51.20
46932;DHT22;32670;51.464;11.964;2023-02-11T00:55:14;20.40;51.20
46932;DHT22;32670;51.464;11.964;2023-02-11T00:57:40;20.40;51.20
46932;DHT22;32670;51.464;11.964;2023-02-11T01:00:13;20.40;51.20
46932;DHT22;32670;51.464;11.964;2023-02-11T01:02:39;20.50;51.20
46932;DHT22;32670;51.464;11.964;2023-02-11T01:05:04;20.50;51.20
46932;DHT22;32670;51.464;11.964;2023-02-11T01:07:30;20.40;51.10
46932;DHT22;32670;51.464;11.964;2023-02-11T01:09:56;20.50;51.20
46932;DHT22;32670;51.464;11.964;2023-02-11T01:12:22;20.50;51.30
46932;DHT22;32670;51.464;11.964;2023-02-11T01:14:48;20.50;51.40
46932;DHT22;32670;51.464;11.964;2023-02-11T01:17:13;20.50;51.40
46932;DHT22;32670;51.464;11.964;2023-02-11T01:19:39;20.50;51.30
46932;DHT22;32670;51.464;11.964;2023-02-11T01:22:05;20.50;52.00
46932;DHT22;32670;51.464;11.964;2023-02-11T01:24:30;20.50;51.50
46932;DHT22;32670;51.464;11.964;2023-02-11T01:26:56;20.50;51.50
46932;DHT22;32670;51.464;11.964;2023-02-11T01:29:21;20.50;51.60
46932;DHT22;32670;51.464;11.964;2023-02-11T01:31:47;20.50;51.60
46932;DHT22;32670;51.464;11.964;2023-02-11T01:34:12;20.50;51.60
46932;DHT22;32670;51.464;11.964;2023-02-11T01:36:38;20.50;51.60
46932;DHT22;32670;51.464;11.964;2023-02-11T01:39:04;20.50;51.50
46932;DHT22;32670;51.464;11.964;2023-02-11T01:41:29;20.60;51.50
46932;DHT22;32670;51.464;11.964;2023-02-11T01:43:55;20.50;51.60
46932;DHT22;32670;51.464;11.964;2023-02-11T01:46:37;20.50;51.60
46932;DHT22;32670;51.464;11.964;2023-02-11T01:49:06;20.50;51.70
46932;DHT22;32670;51.464;11.964;2023-02-11T01:51:40;20.60;51.40
46932;DHT22;32670;51.464;11.964;2023-02-11T01:54:10;20.60;51.60
46932;DHT22;32670;51.464;11.964;2023-02-11T01:56:56;20.60;51.60
46932;DHT22;32670;51.464;11.964;2023-02-11T01:59:58;20.60;51.00
46932;DHT22;32670;51.464;11.964;2023-02-11T02:08:18;20.60;51.70
46932;DHT22;32670;51.464;11.964;2023-02-11T02:10:48;20.60;51.60
46932;DHT22;32670;51.464;11.964;2023-02-11T02:13:14;20.60;51.50
46932;DHT22;32670;51.464;11.964;2023-02-11T02:15:53;20.60;51.60
46932;DHT22;32670;51.464;11.964;2023-02-11T02:18:47;20.60;51.70
46932;DHT22;32670;51.464;11.964;2023-02-11T02:21:29;20.60;51.90
46932;DHT22;32670;51.464;11.964;2023-02-11T02:24:07;20.60;51.90
46932;DHT22;32670;51.464;11.964;2023-02-11T02:32:20;20.60;52.00
46932;DHT22;32670;51.464;11.964;2023-02-11T02:37:54;20.60;52.10
46932;DHT22;32670;51.464;11.964;2023-02-11T02:40:26;20.60;52.00
46932;DHT22;32670;51.464;11.964;2023-02-11T02:42:54;20.60;52.40
46932;DHT22;32670;51.464;11.964;2023-02-11T02:45:20;20.60;52.20
46932;DHT22;32670;51.464;11.964;2023-02-11T02:47:46;20.70;52.30
46932;DHT22;32670;51.464;11.964;2023-02-11T02:50:14;20.60;52.20
46932;DHT22;32670;51.464;11.964;2023-02-11T02:52:54;20.60;52.20
46932;DHT22;32670;51.464;11.964;2023-02-11T02:55:25;20.70;52.90
46932;DHT22;32670;51.464;11.964;2023-02-11T03:01:02;20.70;52.50
46932;DHT22;32670;51.464;11.964;2023-02-11T03:03:47;20.70;52.30
46932;DHT22;32670;51.464;11.964;2023-02-11T03:06:24;20.70;52.40
46932;DHT22;32670;51.464;11.964;2023-02-11T03:08:58;20.70;52.30
46932;DHT22;32670;51.464;11.964;2023-02-11T03:11:27;20.70;52.40
46932;DHT22;32670;51.464;11.964;2023-02-11T03:13:53;20.70;52.40
46932;DHT22;32670;51.464;11.964;2023-02-11T03:16:23;20.70;52.20
46932;DHT22;32670;51.464;11.964;2023-02-11T03:18:56;20.70;52.40
46932;DHT22;32670;51.464;11.964;2023-02-11T03:21:24;20.70;52.30
46932;DHT22;32670;51.464;11.964;2023-02-11T03:23:54;20.70;52.40
46932;DHT22;32670;51.464;11.964;2023-02-11T03:26:29;20.70;52.90
46932;DHT22;32670;51.464;11.964;2023-02-11T03:29:04;20.70;52.70
46932;DHT22;32670;51.464;11.964;2023-02-11T03:31:40;20.70;52.80
46932;DHT22;32670;51.464;11.964;2023-02-11T03:34:16;20.70;52.70
46932;DHT22;32670;51.464;11.964;2023-02-11T03:36:50;20.80;52.80
46932;DHT22;32670;51.464;11.964;2023-02-11T03:39:23;20.80;52.80
46932;DHT22;32670;51.464;11.964;2023-02-11T03:41:50;20.80;52.70
46932;DHT22;32670;51.464;11.964;2023-02-11T03:44:18;20.70;51.50
46932;DHT22;32670;51.464;11.964;2023-02-11T03:46:49;20.80;51.10
46932;DHT22;32670;51.464;11.964;2023-02-11T03:49:17;20.80;50.90
46932;DHT22;32670;51.464;11.964;2023-02-11T03:51:45;20.80;50.80
46932;DHT22;32670;51.464;11.964;2023-02-11T03:54:16;20.80;51.50
46932;DHT22;32670;51.464;11.964;2023-02-11T03:56:48;20.80;51.90
46932;DHT22;32670;51.464;11.964;2023-02-11T03:59:15;20.80;52.00
46932;DHT22;32670;51.464;11.964;2023-02-11T04:01:40;20.80;52.00
46932;DHT22;32670;51.464;11.964;2023-02-11T04:04:06;20.80;52.10
46932;DHT22;32670;51.464;11.964;2023-02-11T04:06:31;20.80;52.30
46932;DHT22;32670;51.464;11.964;2023-02-11T04:08:57;20.80;52.20
46932;DHT22;32670;51.464;11.964;2023-02-11T04:11:22;20.80;52.20
46932;DHT22;32670;51.464;11.964;2023-02-11T04:13:48;20.80;52.20
46932;DHT22;32670;51.464;11.964;2023-02-11T04:16:13;20.80;52.20
46932;DHT22;32670;51.464;11.964;2023-02-11T04:18:39;20.80;52.10
46932;DHT22;32670;51.464;11.964;2023-02-11T04:21:04;20.80;52.20
46932;DHT22;32670;51.464;11.964;2023-02-11T04:23:30;20.80;52.20
46932;DHT22;32670;51.464;11.964;2023-02-11T04:25:55;20.70;52.10
46932;DHT22;32670;51.464;11.964;2023-02-11T04:28:21;20.80;52.20
46932;DHT22;32670;51.464;11.964;2023-02-11T04:30:49;20.80;52.20
46932;DHT22;32670;51.464;11.964;2023-02-11T04:33:14;20.80;52.20
46932;DHT22;32670;51.464;11.964;2023-02-11T04:35:40;20.80;52.20
46932;DHT22;32670;51.464;11.964;2023-02-11T04:38:05;20.80;52.50
46932;DHT22;32670;51.464;11.964;2023-02-11T04:40:31;20.80;52.60
46932;DHT22;32670;51.464;11.964;2023-02-11T04:42:56;20.80;52.60
46932;DHT22;32670;51.464;11.964;2023-02-11T04:45:22;20.80;52.60
46932;DHT22;32670;51.464;11.964;2023-02-11T04:47:47;20.80;52.60
46932;DHT22;32670;51.464;11.964;2023-02-11T04:50:13;20.80;52.70
46932;DHT22;32670;51.464;11.964;2023-02-11T04:52:38;20.80;52.80
46932;DHT22;32670;51.464;11.964;2023-02-11T04:55:04;20.80;52.70
46932;DHT22;32670;51.464;11.964;2023-02-11T04:57:29;20.80;52.90
46932;DHT22;32670;51.464;11.964;2023-02-11T04:59:55;20.80;52.70
46932;DHT22;32670;51.464;11.964;2023-02-11T05:02:20;20.80;52.70
46932;DHT22;32670;51.464;11.964;2023-02-11T05:04:46;20.80;52.70
46932;DHT22;32670;51.464;11.964;2023-02-11T05:07:11;20.80;52.60
46932;DHT22;32670;51.464;11.964;2023-02-11T05:09:37;20.80;52.70
46932;DHT22;32670;51.464;11.964;2023-02-11T05:12:02;20.80;52.70
46932;DHT22;32670;51.464;11.964;2023-02-11T05:14:28;20.80;52.80
46932;DHT22;32670;51.464;11.964;2023-02-11T05:16:53;20.80;52.90
46932;DHT22;32670;51.464;11.964;2023-02-11T05:19:19;20.80;53.00
46932;DHT22;32670;51.464;11.964;2023-02-11T05:21:44;20.80;53.30
46932;DHT22;32670;51.464;11.964;2023-02-11T05:24:10;20.80;53.30
46932;DHT22;32670;51.464;11.964;2023-02-11T05:26:35;20.80;53.10
46932;DHT22;32670;51.464;11.964;2023-02-11T05:29:01;20.80;53.10
46932;DHT22;32670;51.464;11.964;2023-02-11T05:31:26;20.90;53.10
46932;DHT22;32670;51.464;11.964;2023-02-11T05:33:52;20.90;53.30
46932;DHT22;32670;51.464;11.964;2023-02-11T05:36:17;20.80;53.10
46932;DHT22;32670;51.464;11.964;2023-02-11T05:38:42;20.80;53.10
46932;DHT22;32670;51.464;11.964;2023-02-11T05:41:09;20.80;53.30
46932;DHT22;32670;51.464;11.964;2023-02-11T05:43:34;20.90;53.60
46932;DHT22;32670;51.464;11.964;2023-02-11T05:46:01;20.80;52.40
46932;DHT22;32670;51.464;11.964;2023-02-11T05:48:26;20.80;51.80
46932;DHT22;32670;51.464;11.964;2023-02-11T05:50:52;20.80;51.90
46932;DHT22;32670;51.464;11.964;2023-02-11T05:53:17;20.90;52.50
46932;DHT22;32670;51.464;11.964;2023-02-11T05:55:43;20.90;52.90
46932;DHT22;32670;51.464;11.964;2023-02-11T05:58:08;20.90;52.90
46932;DHT22;32670;51.464;11.964;2023-02-11T06:00:35;20.90;53.00
46932;DHT22;32670;51.464;11.964;2023-02-11T06:03:00;20.90;53.00
46932;DHT22;32670;51.464;11.964;2023-02-11T06:05:26;20.90;53.20
46932;DHT22;32670;51.464;11.964;2023-02-11T06:07:51;20.90;53.30
46932;DHT22;32670;51.464;11.964;2023-02-11T06:10:17;20.90;53.20
46932;DHT22;32670;51.464;11.964;2023-02-11T06:12:42;20.80;53.20
46932;DHT22;32670;51.464;11.964;2023-02-11T06:15:09;20.90;53.40
46932;DHT22;32670;51.464;11.964;2023-02-11T06:17:34;20.90;53.30
46932;DHT22;32670;51.464;11.964;2023-02-11T06:20:01;20.90;53.40
46932;DHT22;32670;51.464;11.964;2023-02-11T06:22:27;20.80;53.30
46932;DHT22;32670;51.464;11.964;2023-02-11T06:24:52;20.90;53.30
46932;DHT22;32670;51.464;11.964;2023-02-11T06:27:18;20.90;53.30
46932;DHT22;32670;51.464;11.964;2023-02-11T06:29:45;20.80;53.40
46932;DHT22;32670;51.464;11.964;2023-02-11T06:32:11;20.80;53.30
46932;DHT22;32670;51.464;11.964;2023-02-11T06:34:36;20.90;53.50
46932;DHT22;32670;51.464;11.964;2023-02-11T06:37:02;20.90;53.50
46932;DHT22;32670;51.464;11.964;2023-02-11T06:39:27;20.90;53.40
46932;DHT22;32670;51.464;11.964;2023-02-11T06:41:53;20.90;53.40
46932;DHT22;32670;51.464;11.964;2023-02-11T06:44:18;20.90;53.50
46932;DHT22;32670;51.464;11.964;2023-02-11T06:46:44;20.90;53.40
46932;DHT22;32670;51.464;11.964;2023-02-11T06:49:09;20.90;53.50
46932;DHT22;32670;51.464;11.964;2023-02-11T06:51:35;20.80;53.40
46932;DHT22;32670;51.464;11.964;2023-02-11T06:54:01;20.90;53.60
46932;DHT22;32670;51.464;11.964;2023-02-11T06:56:26;20.90;53.70
46932;DHT22;32670;51.464;11.964;2023-02-11T06:58:53;20.90;54.00
46932;DHT22;32670;51.464;11.964;2023-02-11T07:01:20;20.90;52.80
46932;DHT22;32670;51.464;11.964;2023-02-11T07:03:45;21.00;52.70
46932;DHT22;32670;51.464;11.964;2023-02-11T07:06:19;20.90;52.80
46932;DHT22;32670;51.464;11.964;2023-02-11T07:08:46;20.90;47.30
46932;DHT22;32670;51.464;11.964;2023-02-11T07:11:18;20.60;41.90
46932;DHT22;32670;51.464;11.964;2023-02-11T07:13:44;20.20;39.70
46932;DHT22;32670;51.464;11.964;2023-02-11T07:16:12;19.80;38.90
46932;DHT22;32670;51.464;11.964;2023-02-11T07:18:38;19.50;38.40
46932;DHT22;32670;51.464;11.964;2023-02-11T07:21:05;19.30;38.20
46932;DHT22;32670;51.464;11.964;2023-02-11T07:23:31;19.10;37.90
46932;DHT22;32670;51.464;11.964;2023-02-11T07:25:57;18.90;37.50
46932;DHT22;32670;51.464;11.964;2023-02-11T07:28:22;18.80;37.20
46932;DHT22;32670;51.464;11.964;2023-02-11T07:30:48;18.60;37.30
46932;DHT22;32670;51.464;11.964;2023-02-11T07:33:13;18.50;37.50
46932;DHT22;32670;51.464;11.964;2023-02-11T07:35:39;18.40;37.50
46932;DHT22;32670;51.464;11.964;2023-02-11T07:38:04;18.30;37.60
46932;DHT22;32670;51.464;11.964;2023-02-11T07:40:30;18.20;37.60
46932;DHT22;32670;51.464;11.964;2023-02-11T07:42:56;18.10;37.60
46932;DHT22;32670;51.464;11.964;2023-02-11T07:45:21;18.10;37.70
46932;DHT22;32670;51.464;11.964;2023-02-11T07:47:47;18.10;37.60
46932;DHT22;32670;51.464;11.964;2023-02-11T07:50:12;18.00;38.10
46932;DHT22;32670;51.464;11.964;2023-02-11T07:52:38;18.00;38.10
46932;DHT22;32670;51.464;11.964;2023-02-11T07:55:04;18.00;37.90
46932;DHT22;32670;51.464;11.964;2023-02-11T07:57:29;18.00;38.00
46932;DHT22;32670;51.464;11.964;2023-02-11T07:59:55;17.90;38.10
46932;DHT22;32670;51.464;11.964;2023-02-11T08:02:20;17.90;38.40
46932;DHT22;32670;51.464;11.964;2023-02-11T08:04:46;17.90;38.00
46932;DHT22;32670;51.464;11.964;2023-02-11T08:07:15;17.80;38.20
46932;DHT22;32670;51.464;11.964;2023-02-11T08:09:40;17.80;38.40
46932;DHT22;32670;51.464;11.964;2023-02-11T08:12:06;17.70;38.50
46932;DHT22;32670;51.464;11.964;2023-02-11T08:14:31;17.70;39.10
46932;DHT22;32670;51.464;11.964;2023-02-11T08:16:57;17.70;39.70
46932;DHT22;32670;51.464;11.964;2023-02-11T08:19:22;17.90;40.20
46932;DHT22;32670;51.464;11.964;2023-02-11T08:21:48;18.10;40.50
46932;DHT22;32670;51.464;11.964;2023-02-11T08:24:14;18.30;40.90
46932;DHT22;32670;51.464;11.964;2023-02-11T08:26:39;18.40;40.90
46932;DHT22;32670;51.464;11.964;2023-02-11T08:29:10;18.50;41.00
46932;DHT22;32670;51.464;11.964;2023-02-11T08:31:39;18.60;41.00
46932;DHT22;32670;51.464;11.964;2023-02-11T08:34:05;18.70;41.10
46932;DHT22;32670;51.464;11.964;2023-02-11T08:36:33;18.80;41.10
46932;DHT22;32670;51.464;11.964;2023-02-11T08:39:01;18.80;41.20
46932;DHT22;32670;51.464;11.964;2023-02-11T08:41:28;18.90;41.80
46932;DHT22;32670;51.464;11.964;2023-02-11T08:43:53;19.00;41.30
46932;DHT22;32670;51.464;11.964;2023-02-11T08:46:19;19.00;41.30
46932;DHT22;32670;51.464;11.964;2023-02-11T08:48:45;19.10;41.60
46932;DHT22;32670;51.464;11.964;2023-02-11T08:51:20;19.10;41.70
46932;DHT22;32670;51.464;11.964;2023-02-11T08:53:46;19.10;41.70
46932;DHT22;32670;51.464;11.964;2023-02-11T08:56:17;19.20;42.00
46932;DHT22;32670;51.464;11.964;2023-02-11T08:58:44;19.20;42.00
46932;DHT22;32670;51.464;11.964;2023-02-11T09:01:15;19.20;42.10
46932;DHT22;32670;51.464;11.964;2023-02-11T09:03:41;19.30;42.10
46932;DHT22;32670;51.464;11.964;2023-02-11T09:06:08;19.30;42.10
46932;DHT22;32670;51.464;11.964;2023-02-11T09:08:35;19.30;42.20
46932;DHT22;32670;51.464;11.964;2023-02-11T09:11:01;19.30;42.30
46932;DHT22;32670;51.464;11.964;2023-02-11T09:13:26;19.30;42.30
46932;DHT22;32670;51.464;11.964;2023-02-11T09:15:52;19.30;42.10
46932;DHT22;32670;51.464;11.964;2023-02-11T09:18:18;19.30;42.40
46932;DHT22;32670;51.464;11.964;2023-02-11T09:20:43;19.40;42.40
46932;DHT22;32670;51.464;11.964;2023-02-11T09:23:09;19.40;42.40
46932;DHT22;32670;51.464;11.964;2023-02-11T09:25:37;19.40;42.50
46932;DHT22;32670;51.464;11.964;2023-02-11T09:28:02;19.40;42.50
46932;DHT22;32670;51.464;11.964;2023-02-11T09:30:28;19.50;42.60
46932;DHT22;32670;51.464;11.964;2023-02-11T09:32:54;19.40;42.60
46932;DHT22;32670;51.464;11.964;2023-02-11T09:35:19;19.50;42.70
46932;DHT22;32670;51.464;11.964;2023-02-11T09:37:45;19.40;42.70
46932;DHT22;32670;51.464;11.964;2023-02-11T09:40:12;19.40;42.60
46932;DHT22;32670;51.464;11.964;2023-02-11T09:45:19;19.50;43.20
46932;DHT22;32670;51.464;11.964;2023-02-11T09:47:57;19.50;43.10
46932;DHT22;32670;51.464;11.964;2023-02-11T09:50:34;19.50;43.10
46932;DHT22;32670;51.464;11.964;2023-02-11T09:53:04;19.50;43.60
46932;DHT22;32670;51.464;11.964;2023-02-11T09:55:38;19.50;43.00
46932;DHT22;32670;51.464;11.964;2023-02-11T09:58:19;19.50;43.00
46932;DHT22;32670;51.464;11.964;2023-02-11T10:06:48;19.60;43.60
46932;DHT22;32670;51.464;11.964;2023-02-11T10:17:58;19.60;43.50
46932;DHT22;32670;51.464;11.964;2023-02-11T10:25:45;19.60;44.00
46932;DHT22;32670;51.464;11.964;2023-02-11T10:28:22;19.60;43.80
46932;DHT22;32670;51.464;11.964;2023-02-11T10:30:58;19.70;43.70
46932;DHT22;32670;51.464;11.964;2023-02-11T10:33:33;19.60;43.60
46932;DHT22;32670;51.464;11.964;2023-02-11T10:36:02;19.70;43.70
46932;DHT22;32670;51.464;11.964;2023-02-11T10:38:28;19.60;43.70
46932;DHT22;32670;51.464;11.964;2023-02-11T10:40:53;19.70;43.70
46932;DHT22;32670;51.464;11.964;2023-02-11T10:43:23;19.60;44.00
46932;DHT22;32670;51.464;11.964;2023-02-11T10:45:51;19.70;43.90
46932;DHT22;32670;51.464;11.964;2023-02-11T10:48:47;19.70;43.80
46932;DHT22;32670;51.464;11.964;2023-02-11T10:51:29;19.70;43.80
46932;DHT22;32670;51.464;11.964;2023-02-11T10:56:39;19.70;43.80
46932;DHT22;32670;51.464;11.964;2023-02-11T10:59:13;19.70;44.30
46932;DHT22;32670;51.464;11.964;2023-02-11T11:01:57;19.70;43.70
46932;DHT22;32670;51.464;11.964;2023-02-11T11:04:36;19.70;43.70
46932;DHT22;32670;51.464;11.964;2023-02-11T11:07:16;19.70;43.80
46932;DHT22;32670;51.464;11.964;2023-02-11T11:09:56;19.70;43.70
46932;DHT22;32670;51.464;11.964;2023-02-11T11:15:26;19.70;43.70
46932;DHT22;32670;51.464;11.964;2023-02-11T11:18:14;19.70;43.70
46932;DHT22;32670;51.464;11.964;2023-02-11T11:20:56;19.70;43.70
46932;DHT22;32670;51.464;11.964;2023-02-11T11:23:22;19.70;43.70
46932;DHT22;32670;51.464;11.964;2023-02-11T11:28:28;19.70;43.70
46932;DHT22;32670;51.464;11.964;2023-02-11T11:30:56;19.70;43.80
46932;DHT22;32670;51.464;11.964;2023-02-11T11:33:28;19.70;43.80
46932;DHT22;32670;51.464;11.964;2023-02-11T11:36:02;19.70;43.70
46932;DHT22;32670;51.464;11.964;2023-02-11T11:38:29;19.70;43.70
46932;DHT22;32670;51.464;11.964;2023-02-11T11:44:11;19.70;43.70
46932;DHT22;32670;51.464;11.964;2023-02-11T11:46:42;19.70;43.80
46932;DHT22;32670;51.464;11.964;2023-02-11T11:49:21;19.70;43.80
46932;DHT22;32670;51.464;11.964;2023-02-11T11:54:42;19.70;43.80
46932;DHT22;32670;51.464;11.964;2023-02-11T11:57:15;19.70;43.70
46932;DHT22;32670;51.464;11.964;2023-02-11T11:59:42;19.70;43.70
46932;DHT22;32670;51.464;11.964;2023-02-11T12:02:42;19.70;43.80
46932;DHT22;32670;51.464;11.964;2023-02-11T12:05:25;19.70;43.70
46932;DHT22;32670;51.464;11.964;2023-02-11T12:08:22;19.70;43.70
46932;DHT22;32670;51.464;11.964;2023-02-11T12:16:48;19.70;43.70
46932;DHT22;32670;51.464;11.964;2023-02-11T12:20:11;19.70;43.80
46932;DHT22;32670;51.464;11.964;2023-02-11T12:26:13;19.70;43.80
46932;DHT22;32670;51.464;11.964;2023-02-11T12:28:52;19.70;43.80
46932;DHT22;32670;51.464;11.964;2023-02-11T12:34:25;19.70;44.20
46932;DHT22;32670;51.464;11.964;2023-02-11T12:45:52;19.80;45.20
46932;DHT22;32670;51.464;11.964;2023-02-11T12:56:29;19.80;45.10
46932;DHT22;32670;51.464;11.964;2023-02-11T12:58:59;19.80;44.90
46932;DHT22;32670;51.464;11.964;2023-02-11T13:01:28;19.90;44.80
46932;DHT22;32670;51.464;11.964;2023-02-11T13:04:07;19.80;44.70
46932;DHT22;32670;51.464;11.964;2023-02-11T13:06:57;19.80;45.20
46932;DHT22;32670;51.464;11.964;2023-02-11T13:09:26;19.90;45.10
46932;DHT22;32670;51.464;11.964;2023-02-11T13:11:56;19.80;44.80
46932;DHT22;32670;51.464;11.964;2023-02-11T13:14:44;19.90;44.80
46932;DHT22;32670;51.464;11.964;2023-02-11T13:17:21;19.80;44.70
46932;DHT22;32670;51.464;11.964;2023-02-11T13:19:57;19.90;44.70
46932;DHT22;32670;51.464;11.964;2023-02-11T13:22:43;19.90;44.70
46932;DHT22;32670;51.464;11.964;2023-02-11T13:25:23;19.90;44.60
46932;DHT22;32670;51.464;11.964;2023-02-11T13:28:28;19.80;44.50
46932;DHT22;32670;51.464;11.964;2023-02-11T13:30:58;19.90;44.50
46932;DHT22;32670;51.464;11.964;2023-02-11T13:38:28;19.90;44.50
46932;DHT22;32670;51.464;11.964;2023-02-11T13:41:04;19.80;44.40
46932;DHT22;32670;51.464;11.964;2023-02-11T13:43:32;19.80;44.40
46932;DHT22;32670;51.464;11.964;2023-02-11T13:46:10;19.90;44.50
46932;DHT22;32670;51.464;11.964;2023-02-11T13:48:38;19.80;44.40
46932;DHT22;32670;51.464;11.964;2023-02-11T13:51:12;19.90;44.40
46932;DHT22;32670;51.464;11.964;2023-02-11T13:53:55;19.90;44.40
46932;DHT22;32670;51.464;11.964;2023-02-11T13:56:33;19.90;44.40
46932;DHT22;32670;51.464;11.964;2023-02-11T13:59:01;19.90;44.40
46932;DHT22;32670;51.464;11.964;2023-02-11T14:01:59;19.90;44.40
46932;DHT22;32670;51.464;11.964;2023-02-11T14:10:55;19.90;45.00
46932;DHT22;32670;51.464;11.964;2023-02-11T14:13:25;19.90;44.70
46932;DHT22;32670;51.464;11.964;2023-02-11T14:16:04;19.90;44.60
46932;DHT22;32670;51.464;11.964;2023-02-11T14:23:45;19.90;44.50
46932;DHT22;32670;51.464;11.964;2023-02-11T14:29:18;19.90;44.50
46932;DHT22;32670;51.464;11.964;2023-02-11T14:31:59;19.90;44.40
46932;DHT22;32670;51.464;11.964;2023-02-11T14:37:51;19.90;44.40
46932;DHT22;32670;51.464;11.964;2023-02-11T14:42:45;19.90;44.30
46932;DHT22;32670;51.464;11.964;2023-02-11T14:45:17;19.90;44.40
46932;DHT22;32670;51.464;11.964;2023-02-11T14:47:48;19.90;44.30
46932;DHT22;32670;51.464;11.964;2023-02-11T14:50:24;19.90;44.30
46932;DHT22;32670;51.464;11.964;2023-02-11T14:52:51;19.90;44.30
46932;DHT22;32670;51.464;11.964;2023-02-11T14:55:28;19.90;44.30
46932;DHT22;32670;51.464;11.964;2023-02-11T15:01:00;19.90;44.30
46932;DHT22;32670;51.464;11.964;2023-02-11T15:03:37;19.90;44.30
46932;DHT22;32670;51.464;11.964;2023-02-11T15:06:06;19.90;44.30
46932;DHT22;32670;51.464;11.964;2023-02-11T15:08:34;19.90;44.30
46932;DHT22;32670;51.464;11.964;2023-02-11T15:11:03;19.90;44.30
46932;DHT22;32670;51.464;11.964;2023-02-11T15:13:32;19.90;44.20
46932;DHT22;32670;51.464;11.964;2023-02-11T15:16:02;19.90;44.30
46932;DHT22;32670;51.464;11.964;2023-02-11T15:18:34;19.90;44.30
46932;DHT22;32670;51.464;11.964;2023-02-11T15:21:01;19.90;44.20
46932;DHT22;32670;51.464;11.964;2023-02-11T15:23:30;19.90;44.20
46932;DHT22;32670;51.464;11.964;2023-02-11T15:25:56;19.90;44.20
46932;DHT22;32670;51.464;11.964;2023-02-11T15:28:25;19.90;44.20
46932;DHT22;32670;51.464;11.964;2023-02-11T15:31:10;19.90;44.20
46932;DHT22;32670;51.464;11.964;2023-02-11T15:33:37;19.90;44.20
46932;DHT22;32670;51.464;11.964;2023-02-11T15:36:03;19.90;44.20
46932;DHT22;32670;51.464;11.964;2023-02-11T15:38:29;19.90;44.20
46932;DHT22;32670;51.464;11.964;2023-02-11T15:41:02;19.90;44.20
46932;DHT22;32670;51.464;11.964;2023-02-11T15:43:46;19.90;44.20
46932;DHT22;32670;51.464;11.964;2023-02-11T15:46:15;19.90;44.20
46932;DHT22;32670;51.464;11.964;2023-02-11T15:48:51;19.90;44.20
46932;DHT22;32670;51.464;11.964;2023-02-11T15:51:19;19.90;44.20
46932;DHT22;32670;51.464;11.964;2023-02-11T15:53:49;19.90;44.20
46932;DHT22;32670;51.464;11.964;2023-02-11T15:56:27;19.90;44.20
46932;DHT22;32670;51.464;11.964;2023-02-11T15:58:59;19.90;44.20
46932;DHT22;32670;51.464;11.964;2023-02-11T16:01:35;19.90;44.20
46932;DHT22;32670;51.464;11.964;2023-02-11T16:04:02;19.90;44.20
46932;DHT22;32670;51.464;11.964;2023-02-11T16:06:39;19.90;44.10
46932;DHT22;32670;51.464;11.964;2023-02-11T16:11:52;19.90;44.20
46932;DHT22;32670;51.464;11.964;2023-02-11T16:14:22;19.90;44.20
46932;DHT22;32670;51.464;11.964;2023-02-11T16:16:50;19.90;44.20
46932;DHT22;32670;51.464;11.964;2023-02-11T16:19:18;19.90;44.10
46932;DHT22;32670;51.464;11.964;2023-02-11T16:21:44;19.90;44.10
46932;DHT22;32670;51.464;11.964;2023-02-11T16:24:21;19.90;44.40
46932;DHT22;32670;51.464;11.964;2023-02-11T16:26:51;19.90;44.20
46932;DHT22;32670;51.464;11.964;2023-02-11T16:29:23;19.90;44.20
46932;DHT22;32670;51.464;11.964;2023-02-11T16:31:51;19.90;45.50
46932;DHT22;32670;51.464;11.964;2023-02-11T16:34:22;20.00;45.00
46932;DHT22;32670;51.464;11.964;2023-02-11T16:36:49;20.00;44.70
46932;DHT22;32670;51.464;11.964;2023-02-11T16:39:16;20.00;44.70
46932;DHT22;32670;51.464;11.964;2023-02-11T16:41:42;20.00;45.10
46932;DHT22;32670;51.464;11.964;2023-02-11T16:44:08;20.00;44.50
46932;DHT22;32670;51.464;11.964;2023-02-11T16:46:34;20.00;44.50
46932;DHT22;32670;51.464;11.964;2023-02-11T16:49:09;19.90;44.40
46932;DHT22;32670;51.464;11.964;2023-02-11T16:51:38;20.00;44.50
46932;DHT22;32670;51.464;11.964;2023-02-11T16:54:04;20.00;44.50
46932;DHT22;32670;51.464;11.964;2023-02-11T16:56:30;19.90;44.40
46932;DHT22;32670;51.464;11.964;2023-02-11T16:58:55;20.00;44.40
46932;DHT22;32670;51.464;11.964;2023-02-11T17:01:20;20.00;44.40
46932;DHT22;32670;51.464;11.964;2023-02-11T17:03:46;19.90;44.30
46932;DHT22;32670;51.464;11.964;2023-02-11T17:06:12;19.90;44.30
46932;DHT22;32670;51.464;11.964;2023-02-11T17:08:38;20.00;44.30
46932;DHT22;32670;51.464;11.964;2023-02-11T17:11:04;20.00;44.30
46932;DHT22;32670;51.464;11.964;2023-02-11T17:13:30;19.90;44.30
46932;DHT22;32670;51.464;11.964;2023-02-11T17:15:56;20.00;44.30
46932;DHT22;32670;51.464;11.964;2023-02-11T17:18:22;20.00;44.30
46932;DHT22;32670;51.464;11.964;2023-02-11T17:20:47;20.00;44.30
46932;DHT22;32670;51.464;11.964;2023-02-11T17:23:13;20.00;44.30
46932;DHT22;32670;51.464;11.964;2023-02-11T17:25:38;20.00;44.30
46932;DHT22;32670;51.464;11.964;2023-02-11T17:28:05;20.00;44.20